createdAt,value
2023-09-15T00:08:20.549Z,2.90
2023-09-15T00:21:20.545Z,2.90
2023-09-15T00:34:20.568Z,2.50
2023-09-15T00:47:20.575Z,2.80
2023-09-15T01:00:20.597Z,2.50
2023-09-15T01:13:20.599Z,2.40
2023-09-15T01:26:20.600Z,2.50
2023-09-15T01:39:20.631Z,2.60
2023-09-15T01:52:20.659Z,2.50
2023-09-15T02:05:20.636Z,2.10
2023-09-15T02:18:20.611Z,2.40
2023-09-15T02:31:20.698Z,2.10
2023-09-15T02:44:20.635Z,2.20
2023-09-15T02:57:20.681Z,2.00
2023-09-15T03:10:20.778Z,2.10
2023-09-15T03:23:20.695Z,1.90
2023-09-15T03:36:20.669Z,1.80
2023-09-15T03:49:20.799Z,1.80
2023-09-15T04:02:20.697Z,1.80
2023-09-15T04:15:20.768Z,2.00
2023-09-15T04:28:20.769Z,1.60
2023-09-15T04:41:20.784Z,1.80
2023-09-15T04:54:20.776Z,1.70
2023-09-15T05:07:21.308Z,1.70
2023-09-15T05:20:21.175Z,2.20
2023-09-15T05:33:21.464Z,2.40
2023-09-15T05:46:21.026Z,2.50
2023-09-15T05:59:20.824Z,2.30
2023-09-15T06:12:20.846Z,1.90
2023-09-15T06:25:20.843Z,1.90
2023-09-15T06:38:20.835Z,2.00
2023-09-15T06:51:21.019Z,2.00
2023-09-15T07:04:20.922Z,1.90
2023-09-15T07:17:20.921Z,2.20
2023-09-15T07:30:20.887Z,1.90
2023-09-15T07:43:21.506Z,2.00
2023-09-15T07:56:21.491Z,1.90
2023-09-15T08:09:21.339Z,2.30
2023-09-15T08:22:20.962Z,1.90
2023-09-15T08:35:20.942Z,2.30
2023-09-15T08:48:20.980Z,2.30
2023-09-15T09:01:21.124Z,2.20
2023-09-15T09:14:21.016Z,2.10
2023-09-15T09:27:21.007Z,2.00
2023-09-15T09:40:21.026Z,2.10
2023-09-15T09:53:21.021Z,1.80
2023-09-15T10:06:21.071Z,1.90
2023-09-15T10:19:21.015Z,2.60
2023-09-15T10:32:21.027Z,2.70
2023-09-15T10:45:21.092Z,2.70
2023-09-15T10:58:21.022Z,2.60
2023-09-15T11:11:21.074Z,3.10
2023-09-15T11:24:21.164Z,3.00
2023-09-15T11:37:21.057Z,3.30
2023-09-15T11:50:21.061Z,3.80
2023-09-15T12:03:21.197Z,4.40
2023-09-15T12:16:21.145Z,3.90
2023-09-15T12:29:21.136Z,3.40
2023-09-15T12:42:21.103Z,3.10
2023-09-15T12:55:21.156Z,3.60
2023-09-15T13:08:21.123Z,2.70
2023-09-15T13:21:21.184Z,3.10
2023-09-15T13:34:21.159Z,3.30
2023-09-15T13:47:21.183Z,3.10
2023-09-15T14:00:21.201Z,2.80
2023-09-15T14:13:21.195Z,2.30
2023-09-15T14:26:21.231Z,2.60
2023-09-15T14:39:21.244Z,3.60
2023-09-15T14:52:21.200Z,3.60
2023-09-15T15:05:21.225Z,3.90
2023-09-15T15:18:21.337Z,3.90
2023-09-15T15:31:21.336Z,3.30
2023-09-15T15:44:21.434Z,3.20
2023-09-15T15:57:21.333Z,3.10
2023-09-15T16:10:21.330Z,2.70
2023-09-15T16:23:21.345Z,3.90
2023-09-15T16:36:21.404Z,6.55
2023-09-15T16:49:21.392Z,6.00
2023-09-15T17:02:21.408Z,5.90
2023-09-15T17:15:21.433Z,5.90
2023-09-15T17:28:21.431Z,5.20
2023-09-15T17:41:21.423Z,4.10
2023-09-15T17:54:22.668Z,3.70
2023-09-15T18:07:21.469Z,3.50
2023-09-15T18:20:21.434Z,3.60
2023-09-15T18:33:21.498Z,3.60
2023-09-15T18:46:21.548Z,4.00
2023-09-15T18:59:21.472Z,5.20
2023-09-15T19:12:21.504Z,4.80
2023-09-15T19:25:21.499Z,4.20
2023-09-15T19:38:21.459Z,4.50
2023-09-15T19:51:21.510Z,4.30
2023-09-15T20:04:21.476Z,5.20
2023-09-15T20:17:21.476Z,4.70
2023-09-15T20:30:21.567Z,4.40
2023-09-15T20:43:21.524Z,5.00
2023-09-15T20:56:21.574Z,4.90
2023-09-15T21:09:21.553Z,4.80
2023-09-15T21:22:21.529Z,4.40
2023-09-15T21:35:21.499Z,4.60
2023-09-15T21:48:21.610Z,5.00
2023-09-15T22:01:21.619Z,4.80
2023-09-15T22:14:21.523Z,4.40
2023-09-15T22:27:21.535Z,4.70
2023-09-15T22:40:21.543Z,5.00
2023-09-15T22:53:21.547Z,4.50
2023-09-15T23:06:21.588Z,4.40
2023-09-15T23:19:21.570Z,4.30
2023-09-15T23:32:21.563Z,4.00
2023-09-15T23:45:21.632Z,4.30
2023-09-15T23:58:21.657Z,3.90
